Time;durP1;ratioP1;P1;durP2;ratioP2;P2;SDS_P1;SDS_P2;PMS_P1;PMS_P2;Temp;Humidity;BMP_temperature;BMP_pressure;BME280_temperature;BME280_humidity;BME280_pressure;Samples;Min_cycle;Max_cycle;Signal;HPM_P1;HPM_P2
2021/04/29 00:00:14;;;;;;;14.88;8.85;;;10.00;60.60;;;;;;5049999;28;20035;-64
2021/04/29 00:02:39;;;;;;;12.15;8.50;;;10.00;60.50;;;;;;5030846;28;20025;-64
2021/04/29 00:05:06;;;;;;;13.98;9.02;;;10.00;61.10;;;;;;5046538;28;20032;-64
2021/04/29 00:07:32;;;;;;;18.17;8.30;;;9.90;60.80;;;;;;5031717;28;20048;-64
2021/04/29 00:09:57;;;;;;;18.15;9.05;;;9.90;60.90;;;;;;5031103;28;20013;-64
2021/04/29 00:12:23;;;;;;;14.07;8.85;;;9.80;60.90;;;;;;5049105;28;20028;-64
2021/04/29 00:14:49;;;;;;;16.08;8.75;;;9.80;61.40;;;;;;5048770;28;20098;-64
2021/04/29 00:17:14;;;;;;;18.45;9.68;;;9.80;61.50;;;;;;5049588;28;20041;-64
2021/04/29 00:19:40;;;;;;;18.77;9.65;;;9.70;62.10;;;;;;5044779;28;20028;-64
2021/04/29 00:22:05;;;;;;;15.07;8.63;;;9.70;62.30;;;;;;5048505;28;20525;-64
2021/04/29 00:24:31;;;;;;;17.55;9.52;;;9.60;62.60;;;;;;5049070;28;20021;-64
2021/04/29 00:26:57;;;;;;;14.23;9.20;;;9.60;62.60;;;;;;5048276;28;20013;-65
2021/04/29 00:29:22;;;;;;;15.05;8.50;;;9.50;62.80;;;;;;5044815;28;20345;-64
2021/04/29 00:31:48;;;;;;;20.40;9.23;;;9.50;62.70;;;;;;5048439;28;20021;-64
2021/04/29 00:34:14;;;;;;;16.85;9.40;;;9.50;62.60;;;;;;5048811;28;20220;-64
2021/04/29 00:36:40;;;;;;;17.45;9.15;;;9.50;62.90;;;;;;5069678;28;20021;-65
2021/04/29 00:39:05;;;;;;;18.17;9.25;;;9.50;62.70;;;;;;5049368;28;20226;-64
2021/04/29 00:41:31;;;;;;;19.55;9.48;;;9.50;62.90;;;;;;5048959;28;20035;-64
2021/04/29 00:43:57;;;;;;;17.63;8.95;;;9.50;62.30;;;;;;5046754;28;20025;-64
2021/04/29 00:46:22;;;;;;;16.38;9.90;;;9.50;62.30;;;;;;5047648;28;20029;-64
2021/04/29 00:48:48;;;;;;;18.30;9.48;;;9.50;62.40;;;;;;5028308;28;20096;-64
2021/04/29 00:51:14;;;;;;;15.02;9.35;;;9.50;62.10;;;;;;5047380;28;20020;-64
2021/04/29 00:53:42;;;;;;;14.73;9.40;;;9.50;62.70;;;;;;5044047;28;20033;-64
2021/04/29 00:56:07;;;;;;;14.32;8.77;;;9.40;62.70;;;;;;5030968;28;20028;-64
2021/04/29 00:58:34;;;;;;;17.52;10.02;;;9.50;62.80;;;;;;5047412;28;20029;-65
2021/04/29 01:01:00;;;;;;;15.05;9.63;;;9.40;63.10;;;;;;5048790;28;20021;-64
2021/04/29 01:03:45;;;;;;;18.17;9.82;;;9.40;63.40;;;;;;5030902;28;20021;-65
2021/04/29 01:06:16;;;;;;;16.35;9.90;;;9.40;63.10;;;;;;5046161;28;20083;-64
2021/04/29 01:08:42;;;;;;;18.58;9.68;;;9.50;63.00;;;;;;5055089;28;20041;-64
2021/04/29 01:11:13;;;;;;;16.23;9.45;;;9.50;63.00;;;;;;5048692;28;20345;-64
2021/04/29 01:13:43;;;;;;;15.48;9.00;;;9.50;63.00;;;;;;5047538;28;20467;-64
2021/04/29 01:16:08;;;;;;;20.05;9.60;;;9.50;63.30;;;;;;5047504;28;20029;-64
2021/04/29 01:18:34;;;;;;;223.40;99.78;;;9.40;63.50;;;;;;5029305;28;20128;-69
2021/04/29 01:21:00;;;;;;;24.35;12.63;;;9.50;63.40;;;;;;5015606;28;20033;-64
2021/04/29 01:23:27;;;;;;;20.63;11.10;;;9.50;63.10;;;;;;5049577;28;20387;-64
2021/04/29 01:25:58;;;;;;;16.45;9.57;;;9.50;63.30;;;;;;5048924;28;20108;-64
2021/04/29 01:28:27;;;;;;;20.25;8.82;;;9.50;63.50;;;;;;5047870;28;20032;-65
2021/04/29 01:30:52;;;;;;;17.85;9.82;;;9.50;63.40;;;;;;5048072;28;20083;-64
2021/04/29 01:33:18;;;;;;;18.30;9.95;;;9.50;63.60;;;;;;5048543;28;20021;-67
2021/04/29 01:35:44;;;;;;;15.90;9.25;;;9.50;63.50;;;;;;5047104;28;20028;-64
2021/04/29 01:38:09;;;;;;;17.63;9.73;;;9.50;63.80;;;;;;5048502;28;20033;-65
2021/04/29 01:40:35;;;;;;;20.70;9.57;;;9.50;63.90;;;;;;5047156;28;20071;-65
2021/04/29 01:43:01;;;;;;;15.18;9.80;;;9.50;64.10;;;;;;5047911;28;20153;-64
2021/04/29 01:45:27;;;;;;;18.85;9.73;;;9.50;63.90;;;;;;5048184;28;20021;-64
2021/04/29 01:47:52;;;;;;;18.00;9.98;;;9.60;63.90;;;;;;5028531;28;20085;-65
2021/04/29 01:50:18;;;;;;;17.73;9.88;;;9.70;63.40;;;;;;5047766;28;20028;-64
2021/04/29 01:52:43;;;;;;;18.73;10.23;;;9.70;63.30;;;;;;5047721;28;20478;-64
2021/04/29 01:55:09;;;;;;;20.50;9.85;;;9.80;63.40;;;;;;5048233;28;20021;-65
2021/04/29 01:57:35;;;;;;;20.73;10.90;;;9.80;65.30;;;;;;5046718;28;20398;-64
2021/04/29 02:00:01;;;;;;;16.55;10.32;;;9.70;66.20;;;;;;5031542;28;20033;-64
2021/04/29 02:02:26;;;;;;;17.13;10.60;;;9.60;66.40;;;;;;5049068;28;20498;-65
2021/04/29 02:04:52;;;;;;;17.60;10.68;;;9.70;66.60;;;;;;5047865;28;20029;-64
2021/04/29 02:07:18;;;;;;;17.95;10.77;;;9.70;66.10;;;;;;5049016;28;20048;-65
2021/04/29 02:09:44;;;;;;;16.83;10.32;;;9.70;65.80;;;;;;5049533;28;20490;-64
2021/04/29 02:12:10;;;;;;;16.63;9.48;;;9.80;65.90;;;;;;5054376;28;20083;-65
2021/04/29 02:14:40;;;;;;;19.52;10.50;;;9.80;65.00;;;;;;5053474;28;20025;-64
2021/04/29 02:17:13;;;;;;;16.90;10.73;;;9.90;65.00;;;;;;5055793;28;20100;-64
2021/04/29 02:19:42;;;;;;;;;;;9.80;65.90;;;;;;5051748;28;20025;-65
2021/04/29 02:22:08;;;;;;;18.52;10.55;;;9.70;70.50;;;;;;5056081;28;19904;-65
2021/04/29 02:24:34;;;;;;;20.33;12.15;;;9.60;70.40;;;;;;5055536;28;20025;-64
2021/04/29 02:27:00;;;;;;;17.38;11.27;;;9.60;72.50;;;;;;5020964;28;20067;-64
2021/04/29 02:29:25;;;;;;;17.35;11.32;;;9.50;72.60;;;;;;5037591;28;20096;-64
2021/04/29 02:31:51;;;;;;;18.90;11.23;;;9.60;72.00;;;;;;5054003;28;20140;-65
2021/04/29 02:34:19;;;;;;;16.52;11.32;;;9.60;72.00;;;;;;5037671;28;20071;-64
2021/04/29 02:36:44;;;;;;;17.98;11.35;;;9.60;71.80;;;;;;5053862;28;20076;-64
2021/04/29 02:39:10;;;;;;;21.25;11.95;;;9.70;72.60;;;;;;5054331;28;20053;-64
2021/04/29 02:41:35;;;;;;;18.88;12.13;;;9.60;73.60;;;;;;5054446;28;20025;-64
2021/04/29 02:44:02;;;;;;;19.25;11.63;;;9.50;73.00;;;;;;5037819;28;20025;-64
2021/04/29 02:46:28;;;;;;;20.27;11.50;;;9.50;74.40;;;;;;5053907;28;20036;-65
2021/04/29 02:48:53;;;;;;;17.67;10.98;;;9.50;74.90;;;;;;5034260;28;20052;-64
2021/04/29 02:51:20;;;;;;;19.10;11.60;;;9.40;74.90;;;;;;5055248;28;20072;-64
2021/04/29 02:53:45;;;;;;;18.08;11.77;;;9.30;76.60;;;;;;5037141;28;20151;-64
2021/04/29 02:56:11;;;;;;;18.73;12.57;;;9.30;77.20;;;;;;5053788;28;20096;-65
2021/04/29 02:58:44;;;;;;;20.98;11.60;;;9.10;77.10;;;;;;5054556;28;20025;-65
2021/04/29 03:01:10;;;;;;;20.00;12.18;;;9.20;78.10;;;;;;5054284;28;20439;-64
2021/04/29 03:03:36;;;;;;;18.23;12.27;;;9.10;78.30;;;;;;5052835;28;20021;-64
2021/04/29 03:06:03;;;;;;;18.23;11.82;;;9.20;77.20;;;;;;5055464;28;20171;-64
2021/04/29 03:08:29;;;;;;;23.00;12.57;;;9.20;77.30;;;;;;5054778;28;20041;-64
2021/04/29 03:10:54;;;;;;;23.63;12.30;;;9.10;78.00;;;;;;5053066;28;20032;-64
2021/04/29 03:13:20;;;;;;;21.50;14.25;;;9.10;78.20;;;;;;5055027;28;20190;-64
2021/04/29 03:15:46;;;;;;;22.25;13.95;;;9.00;78.90;;;;;;5054690;28;20025;-64
2021/04/29 03:18:11;;;;;;;20.70;13.63;;;9.00;80.80;;;;;;5052605;28;20078;-64
2021/04/29 03:20:37;;;;;;;23.23;14.35;;;9.00;80.00;;;;;;5053520;28;20035;-64
2021/04/29 03:23:02;;;;;;;24.60;14.30;;;8.80;81.40;;;;;;5051607;28;20032;-64
2021/04/29 03:25:28;;;;;;;22.83;15.20;;;8.70;81.10;;;;;;5051375;28;20025;-65
2021/04/29 03:27:54;;;;;;;26.90;15.25;;;8.70;81.60;;;;;;5051417;28;20110;-66
2021/04/29 03:30:20;;;;;;;25.25;15.77;;;8.60;82.10;;;;;;5051767;28;20479;-64
2021/04/29 03:32:46;;;;;;;28.10;15.88;;;8.50;83.00;;;;;;5051084;28;20025;-64
2021/04/29 03:35:11;;;;;;;26.50;15.65;;;8.40;82.80;;;;;;5051664;28;20032;-65
2021/04/29 03:37:37;;;;;;;29.35;15.80;;;8.40;83.10;;;;;;5050863;28;20033;-65
2021/04/29 03:40:03;;;;;;;28.88;17.35;;;8.40;83.90;;;;;;5051399;28;20024;-65
2021/04/29 03:42:28;;;;;;;30.15;18.20;;;8.40;83.80;;;;;;5050287;28;20486;-65
2021/04/29 03:44:54;;;;;;;26.33;17.00;;;8.40;82.80;;;;;;5049877;28;20071;-65
2021/04/29 03:47:20;;;;;;;33.17;18.80;;;8.40;83.10;;;;;;5050914;28;20442;-65
2021/04/29 03:49:45;;;;;;;27.13;16.92;;;8.50;82.60;;;;;;5047476;28;20472;-64
2021/04/29 03:52:11;;;;;;;26.00;16.75;;;8.50;82.90;;;;;;5050526;28;20042;-68
2021/04/29 03:54:36;;;;;;;30.13;18.33;;;8.50;83.30;;;;;;5050166;28;20463;-65
2021/04/29 03:57:03;;;;;;;33.10;18.40;;;8.50;83.20;;;;;;5050147;28;20036;-65
2021/04/29 03:59:28;;;;;;;31.73;17.38;;;8.40;83.70;;;;;;5051062;28;20108;-65
2021/04/29 04:01:54;;;;;;;30.92;17.35;;;8.40;83.70;;;;;;5049195;28;20136;-65
2021/04/29 04:04:19;;;;;;;29.10;17.90;;;8.50;83.30;;;;;;5049911;28;20048;-65
2021/04/29 04:06:45;;;;;;;33.47;18.35;;;8.50;83.30;;;;;;5050524;28;20025;-66
2021/04/29 04:09:11;;;;;;;33.63;17.00;;;8.40;82.90;;;;;;5050489;28;20040;-65
2021/04/29 04:11:36;;;;;;;30.73;17.52;;;8.30;84.20;;;;;;5032487;28;20032;-65
2021/04/29 04:14:02;;;;;;;30.95;17.20;;;8.30;84.40;;;;;;5051215;28;20064;-65
2021/04/29 04:16:29;;;;;;;30.38;17.30;;;8.30;84.30;;;;;;5049276;28;20021;-65
2021/04/29 04:18:55;;;;;;;27.65;16.90;;;8.20;84.60;;;;;;5048193;28;20472;-65
2021/04/29 04:21:21;;;;;;;32.08;17.20;;;8.30;84.70;;;;;;5050913;28;20029;-65
2021/04/29 04:23:46;;;;;;;24.95;15.82;;;8.20;84.20;;;;;;5048614;28;20375;-66
2021/04/29 04:26:12;;;;;;;25.85;16.45;;;8.20;85.00;;;;;;5050913;28;20044;-65
2021/04/29 04:28:37;;;;;;;24.40;16.17;;;8.20;84.60;;;;;;5049921;28;20901;-65
2021/04/29 04:31:03;;;;;;;33.53;16.17;;;8.20;84.80;;;;;;5050374;28;20451;-65
2021/04/29 04:33:29;;;;;;;27.52;16.75;;;8.20;85.00;;;;;;5049165;28;20024;-65
2021/04/29 04:35:54;;;;;;;30.23;17.15;;;8.20;84.90;;;;;;5050017;28;20056;-65
2021/04/29 04:38:20;;;;;;;27.50;16.75;;;8.20;85.30;;;;;;5050438;28;20028;-65
2021/04/29 04:40:46;;;;;;;30.58;17.23;;;8.10;85.40;;;;;;5048223;28;20395;-65
2021/04/29 04:43:11;;;;;;;31.45;16.13;;;8.10;85.60;;;;;;5049567;28;20021;-65
2021/04/29 04:45:37;;;;;;;29.45;16.83;;;8.10;85.30;;;;;;5049179;28;20460;-65
2021/04/29 04:48:03;;;;;;;29.40;17.65;;;8.10;85.50;;;;;;5047841;28;20446;-65
2021/04/29 04:50:28;;;;;;;30.13;17.88;;;8.20;85.70;;;;;;5047428;28;20317;-65
2021/04/29 04:52:54;;;;;;;28.67;18.15;;;8.20;85.30;;;;;;5048379;28;20021;-65
2021/04/29 04:55:20;;;;;;;31.02;18.02;;;8.20;85.70;;;;;;5049448;28;20039;-65
2021/04/29 04:57:45;;;;;;;31.45;17.35;;;8.20;86.20;;;;;;5049558;28;20032;-65
2021/04/29 05:00:11;;;;;;;30.23;17.67;;;8.20;86.00;;;;;;5050087;28;20068;-65
2021/04/29 05:02:38;;;;;;;28.80;17.15;;;8.30;85.30;;;;;;5048578;28;20021;-65
2021/04/29 05:05:04;;;;;;;29.00;17.58;;;8.30;85.00;;;;;;5050135;28;20090;-65
2021/04/29 05:07:31;;;;;;;35.85;18.10;;;8.30;85.30;;;;;;5048304;28;20079;-65
2021/04/29 05:09:57;;;;;;;31.05;17.92;;;8.30;85.50;;;;;;5031421;28;20021;-65
2021/04/29 05:12:22;;;;;;;25.88;17.10;;;8.30;85.70;;;;;;5049417;28;20036;-65
2021/04/29 05:14:48;;;;;;;29.02;17.85;;;8.30;85.00;;;;;;5045006;28;20432;-65
2021/04/29 05:17:13;;;;;;;29.73;17.17;;;8.30;84.90;;;;;;5049582;28;20092;-65
2021/04/29 05:19:39;;;;;;;31.10;16.77;;;8.40;84.50;;;;;;5045381;28;20036;-65
2021/04/29 05:22:05;;;;;;;32.63;17.13;;;8.30;84.80;;;;;;5048798;28;20099;-65
2021/04/29 05:24:30;;;;;;;36.47;19.77;;;8.30;85.00;;;;;;5049268;28;20029;-65
2021/04/29 05:26:56;;;;;;;29.48;17.67;;;8.40;84.90;;;;;;5049112;28;20028;-65
2021/04/29 05:29:22;;;;;;;27.77;18.50;;;8.40;84.40;;;;;;5049438;28;20063;-65
2021/04/29 05:31:47;;;;;;;27.35;17.83;;;8.40;84.60;;;;;;5048663;28;20104;-65
2021/04/29 05:34:13;;;;;;;30.80;17.70;;;8.30;84.70;;;;;;5049566;28;20040;-65
2021/04/29 05:36:38;;;;;;;34.83;18.88;;;8.40;84.70;;;;;;5047445;28;20035;-65
2021/04/29 05:39:04;;;;;;;28.42;18.20;;;8.40;84.80;;;;;;5047300;28;20041;-64
2021/04/29 05:41:30;;;;;;;26.80;19.23;;;8.40;84.50;;;;;;5048954;28;20056;-65
2021/04/29 05:43:56;;;;;;;31.63;18.98;;;8.40;84.70;;;;;;5048600;28;20082;-64
2021/04/29 05:46:21;;;;;;;32.38;18.85;;;8.40;84.60;;;;;;5048618;28;20115;-65
2021/04/29 05:48:47;;;;;;;35.95;18.77;;;8.50;84.40;;;;;;5045426;28;20024;-65
2021/04/29 05:51:13;;;;;;;31.42;18.60;;;8.50;84.20;;;;;;5047875;28;20475;-64
2021/04/29 05:53:38;;;;;;;31.48;18.88;;;8.60;84.10;;;;;;5046634;28;20035;-64
2021/04/29 05:56:04;;;;;;;33.47;19.80;;;8.50;83.80;;;;;;5049210;28;20321;-64
2021/04/29 05:58:30;;;;;;;31.85;19.02;;;8.60;84.00;;;;;;5047821;28;20576;-65
2021/04/29 06:00:55;;;;;;;30.60;19.10;;;8.60;84.00;;;;;;5047947;28;20039;-65
2021/04/29 06:03:22;;;;;;;29.00;18.17;;;8.60;84.30;;;;;;5047778;28;20029;-65
2021/04/29 06:05:48;;;;;;;27.15;18.52;;;8.50;84.60;;;;;;5048469;28;20387;-66
2021/04/29 06:08:14;;;;;;;29.88;17.92;;;8.60;84.00;;;;;;5048581;28;20041;-65
2021/04/29 06:10:39;;;;;;;27.35;17.52;;;8.50;84.10;;;;;;5047937;28;20036;-65
2021/04/29 06:13:05;;;;;;;31.00;17.25;;;8.50;83.80;;;;;;5031402;28;20017;-65
2021/04/29 06:15:31;;;;;;;28.40;18.08;;;8.50;83.30;;;;;;5047047;28;20434;-65
2021/04/29 06:17:56;;;;;;;26.77;17.08;;;8.50;83.90;;;;;;5044977;28;20033;-65
2021/04/29 06:20:23;;;;;;;32.35;16.85;;;8.50;83.70;;;;;;5047476;28;20035;-65
2021/04/29 06:22:48;;;;;;;31.50;17.45;;;8.60;83.40;;;;;;5048049;28;20032;-65
2021/04/29 06:25:14;;;;;;;26.58;16.40;;;8.60;83.60;;;;;;5047578;28;20075;-65
2021/04/29 06:27:39;;;;;;;27.30;16.05;;;8.60;83.40;;;;;;5046783;28;20135;-65
2021/04/29 06:30:07;;;;;;;29.33;17.23;;;8.70;83.80;;;;;;5047312;28;20083;-65
2021/04/29 06:32:32;;;;;;;28.83;16.83;;;8.60;83.20;;;;;;5047176;28;20096;-65
2021/04/29 06:34:58;;;;;;;26.38;17.80;;;8.60;83.20;;;;;;5047011;28;20112;-65
2021/04/29 06:37:24;;;;;;;26.05;16.73;;;8.70;83.30;;;;;;5030558;28;20108;-65
2021/04/29 06:39:49;;;;;;;26.15;16.00;;;8.60;83.40;;;;;;5048507;28;20066;-65
2021/04/29 06:42:15;;;;;;;26.25;15.43;;;8.50;83.50;;;;;;5048771;28;20095;-65
2021/04/29 06:44:41;;;;;;;24.42;15.30;;;8.60;83.10;;;;;;5047407;28;20052;-65
2021/04/29 06:47:07;;;;;;;30.52;15.15;;;8.60;82.90;;;;;;5047624;28;20380;-65
2021/04/29 06:49:33;;;;;;;24.35;15.07;;;8.50;83.00;;;;;;5045710;28;20029;-65
2021/04/29 06:51:58;;;;;;;22.08;14.55;;;8.50;83.20;;;;;;5047636;28;20017;-65
2021/04/29 06:54:24;;;;;;;26.85;14.73;;;8.40;83.40;;;;;;5048315;28;20410;-65
2021/04/29 06:56:52;;;;;;;24.25;14.65;;;8.50;82.90;;;;;;5048444;28;20044;-65
2021/04/29 06:59:18;;;;;;;27.27;14.98;;;8.50;83.10;;;;;;5051754;28;20029;-65
2021/04/29 07:01:43;;;;;;;25.33;14.98;;;8.40;83.30;;;;;;5052034;28;20103;-65
2021/04/29 07:04:09;;;;;;;25.73;14.88;;;8.40;83.30;;;;;;5051159;28;20036;-65
2021/04/29 07:06:35;;;;;;;23.55;14.38;;;8.40;83.20;;;;;;5033072;28;20112;-65
2021/04/29 07:09:01;;;;;;;23.27;13.82;;;8.40;83.20;;;;;;5034482;28;20032;-65
2021/04/29 07:11:27;;;;;;;21.55;13.30;;;8.40;83.60;;;;;;5051062;28;20032;-65
2021/04/29 07:13:52;;;;;;;27.73;15.30;;;8.40;82.90;;;;;;5049915;28;20028;-65
2021/04/29 07:16:18;;;;;;;27.00;14.20;;;8.50;82.70;;;;;;5050915;28;20383;-65
2021/04/29 07:18:44;;;;;;;24.73;15.13;;;8.50;82.50;;;;;;5047636;28;20028;-65
2021/04/29 07:21:09;;;;;;;27.50;14.60;;;8.50;83.00;;;;;;5051286;28;20036;-65
2021/04/29 07:23:35;;;;;;;24.10;13.88;;;8.50;82.70;;;;;;5049136;28;20533;-65
2021/04/29 07:26:00;;;;;;;22.73;14.30;;;8.50;82.70;;;;;;5051409;28;20021;-65
2021/04/29 07:28:27;;;;;;;24.92;13.63;;;8.50;82.70;;;;;;5048258;28;20067;-65
2021/04/29 07:30:53;;;;;;;22.85;13.95;;;8.50;82.50;;;;;;5047592;28;20029;-67
2021/04/29 07:33:19;;;;;;;144.50;64.72;;;8.50;82.20;;;;;;5050827;28;20024;-67
2021/04/29 07:35:44;;;;;;;204.07;89.32;;;8.70;82.00;;;;;;5049104;28;20017;-66
2021/04/29 07:38:10;;;;;;;27.63;16.48;;;8.70;81.30;;;;;;5050505;28;20063;-66
2021/04/29 07:40:36;;;;;;;22.02;14.38;;;8.70;81.10;;;;;;5051659;28;20033;-65
2021/04/29 07:43:01;;;;;;;26.63;15.70;;;8.60;81.40;;;;;;5050044;28;20033;-66
2021/04/29 07:45:27;;;;;;;21.45;13.55;;;8.60;81.10;;;;;;5048242;28;20052;-65
2021/04/29 07:47:53;;;;;;;21.23;13.75;;;8.60;81.00;;;;;;5029779;28;20025;-64
2021/04/29 07:50:19;;;;;;;21.40;13.57;;;8.70;81.00;;;;;;5060383;28;20444;-64
2021/04/29 07:52:45;;;;;;;21.13;13.45;;;8.70;81.00;;;;;;5059677;28;20021;-64
2021/04/29 07:55:15;;;;;;;24.48;13.82;;;8.80;81.10;;;;;;5062750;28;20375;-65
2021/04/29 07:57:40;;;;;;;26.20;14.27;;;8.80;80.80;;;;;;5053907;28;20414;-64
2021/04/29 08:00:07;;;;;;;22.45;14.10;;;8.70;81.00;;;;;;5048243;28;20029;-65
2021/04/29 08:02:33;;;;;;;23.63;14.65;;;8.70;81.00;;;;;;5049054;28;20033;-65
2021/04/29 08:04:59;;;;;;;23.40;13.60;;;8.70;81.10;;;;;;5049602;28;20070;-65
2021/04/29 08:07:25;;;;;;;22.48;13.77;;;8.80;80.70;;;;;;5049023;28;20049;-65
2021/04/29 08:09:50;;;;;;;20.10;13.82;;;8.70;80.50;;;;;;5048907;28;20048;-65
2021/04/29 08:12:16;;;;;;;21.70;13.57;;;8.70;80.40;;;;;;5049077;28;20468;-65
2021/04/29 08:14:42;;;;;;;19.35;12.23;;;8.70;80.20;;;;;;5048938;28;20024;-65
2021/04/29 08:17:07;;;;;;;19.60;13.30;;;8.60;79.90;;;;;;5048805;28;20024;-65
2021/04/29 08:19:33;;;;;;;19.92;12.38;;;8.60;80.10;;;;;;5045517;28;20032;-65
2021/04/29 08:21:58;;;;;;;22.08;13.10;;;8.70;79.90;;;;;;5048931;28;20429;-65
2021/04/29 08:24:24;;;;;;;25.13;15.02;;;8.70;80.00;;;;;;5049440;28;20040;-63
2021/04/29 08:26:50;;;;;;;20.45;13.02;;;8.60;79.70;;;;;;5047947;28;20036;-64
2021/04/29 08:29:15;;;;;;;24.45;13.13;;;8.60;79.70;;;;;;5049205;28;20021;-64
2021/04/29 08:31:41;;;;;;;18.48;13.15;;;8.60;79.80;;;;;;5047283;28;20048;-64
2021/04/29 08:34:07;;;;;;;21.35;13.65;;;8.50;79.90;;;;;;5049885;28;20096;-64
2021/04/29 08:36:32;;;;;;;21.17;12.77;;;8.50;79.70;;;;;;5049047;28;20017;-64
2021/04/29 08:39:00;;;;;;;21.48;13.70;;;8.50;79.80;;;;;;5031139;28;20021;-69
2021/04/29 08:41:25;;;;;;;20.42;13.77;;;8.60;79.40;;;;;;5048000;28;20033;-68
2021/04/29 08:43:52;;;;;;;20.35;12.93;;;8.60;79.10;;;;;;5048306;28;20027;-68
2021/04/29 08:46:17;;;;;;;20.95;12.82;;;8.60;79.10;;;;;;5048162;28;20151;-68
2021/04/29 08:48:43;;;;;;;20.17;13.30;;;8.70;78.70;;;;;;5034859;28;20033;-69
2021/04/29 08:51:09;;;;;;;22.02;12.05;;;8.80;78.20;;;;;;5044743;28;20029;-69
2021/04/29 08:53:36;;;;;;;20.83;13.10;;;8.70;78.30;;;;;;5011170;28;20049;-66
2021/04/29 08:56:02;;;;;;;17.73;12.68;;;8.70;78.10;;;;;;5045845;28;20032;-66
2021/04/29 08:58:27;;;;;;;24.25;12.15;;;8.70;78.10;;;;;;5044793;28;20017;-67
2021/04/29 09:01:03;;;;;;;19.67;13.40;;;8.70;77.60;;;;;;5048242;28;20052;-67
2021/04/29 09:03:30;;;;;;;21.10;12.65;;;8.70;77.90;;;;;;5049678;28;20029;-66
2021/04/29 09:05:57;;;;;;;19.27;12.52;;;8.70;77.80;;;;;;5050105;28;20025;-67
2021/04/29 09:08:26;;;;;;;23.75;13.05;;;8.60;77.80;;;;;;5049221;28;20355;-66
2021/04/29 09:10:51;;;;;;;21.52;12.43;;;8.60;77.80;;;;;;5047447;28;20021;-67
2021/04/29 09:13:21;;;;;;;20.05;11.73;;;8.60;77.60;;;;;;5049074;28;20032;-68
2021/04/29 09:15:47;;;;;;;23.65;12.27;;;8.50;77.60;;;;;;5048005;28;20024;-65
2021/04/29 09:18:17;;;;;;;21.15;13.50;;;8.60;77.60;;;;;;5047200;28;20801;-67
2021/04/29 09:20:51;;;;;;;17.52;12.13;;;8.50;77.80;;;;;;5047734;28;20037;-67
2021/04/29 09:23:19;;;;;;;73.95;36.20;;;8.50;77.50;;;;;;5046110;28;20036;-65
2021/04/29 09:25:52;;;;;;;32.50;20.63;;;8.50;77.30;;;;;;5046860;28;20036;-63
2021/04/29 09:28:18;;;;;;;25.08;13.00;;;8.50;77.20;;;;;;5047758;28;20124;-64
2021/04/29 09:30:43;;;;;;;19.67;12.23;;;8.50;77.30;;;;;;5047268;28;20112;-64
2021/04/29 09:33:09;;;;;;;19.05;12.02;;;8.50;77.60;;;;;;5049213;28;20025;-64
2021/04/29 09:35:38;;;;;;;19.30;11.93;;;8.50;77.80;;;;;;5046601;28;20522;-64
2021/04/29 09:38:10;;;;;;;22.02;12.65;;;8.40;77.80;;;;;;5031460;28;20056;-64
2021/04/29 09:40:39;;;;;;;28.92;13.70;;;8.50;78.90;;;;;;5031128;28;20074;-63
2021/04/29 09:43:06;;;;;;;18.23;13.05;;;8.50;79.10;;;;;;5049108;28;20028;-63
2021/04/29 09:45:33;;;;;;;21.17;13.07;;;8.40;78.90;;;;;;5029355;28;20082;-66
2021/04/29 09:48:09;;;;;;;21.17;12.95;;;8.40;78.50;;;;;;5045241;28;20531;-68
2021/04/29 09:50:40;;;;;;;21.35;13.52;;;8.30;78.90;;;;;;5045978;28;20367;-66
2021/04/29 09:53:10;;;;;;;20.90;13.20;;;8.10;79.40;;;;;;5047757;28;20009;-65
2021/04/29 09:55:37;;;;;;;21.85;13.48;;;8.20;79.70;;;;;;5045502;28;20357;-67
2021/04/29 09:58:23;;;;;;;24.92;13.75;;;8.20;80.20;;;;;;5048341;28;20050;-67
2021/04/29 10:00:49;;;;;;;25.58;13.68;;;8.30;80.30;;;;;;5046301;28;20033;-65
2021/04/29 10:03:15;;;;;;;21.13;13.70;;;8.30;80.30;;;;;;5049164;28;20475;-66
2021/04/29 10:05:41;;;;;;;22.80;14.20;;;8.20;80.70;;;;;;5047878;28;20403;-66
2021/04/29 10:08:14;;;;;;;20.05;13.60;;;8.20;81.60;;;;;;5048462;28;20049;-66
2021/04/29 10:10:44;;;;;;;24.20;14.48;;;8.20;81.40;;;;;;5014234;28;20499;-66
2021/04/29 10:13:10;;;;;;;20.77;12.82;;;8.20;81.00;;;;;;5048889;28;20028;-67
2021/04/29 10:15:38;;;;;;;22.80;13.90;;;8.20;81.50;;;;;;5047361;28;20363;-65
2021/04/29 10:18:05;;;;;;;19.45;13.88;;;8.20;81.40;;;;;;5045911;28;20128;-67
2021/04/29 10:20:31;;;;;;;22.92;14.88;;;8.10;81.70;;;;;;5047603;28;20102;-66
2021/04/29 10:22:58;;;;;;;22.48;14.00;;;8.10;82.20;;;;;;5047056;28;20472;-66
2021/04/29 10:25:28;;;;;;;21.75;14.93;;;8.10;82.40;;;;;;5046763;28;20697;-66
2021/04/29 10:27:55;;;;;;;22.17;14.88;;;8.00;82.30;;;;;;5046297;28;20036;-65
2021/04/29 10:30:28;;;;;;;21.60;14.50;;;8.00;83.10;;;;;;5049016;28;20018;-66
2021/04/29 10:32:54;;;;;;;;;;;7.90;82.70;;;;;;5052437;28;20587;-65
2021/04/29 10:35:21;;;;;;;22.95;13.88;;;7.90;83.30;;;;;;5051976;28;19909;-61
2021/04/29 10:38:00;;;;;;;21.40;14.25;;;7.90;83.20;;;;;;5051955;28;20486;-59
2021/04/29 10:40:35;;;;;;;24.98;14.75;;;7.70;83.30;;;;;;5051610;28;20107;-62
2021/04/29 10:43:01;;;;;;;22.67;13.90;;;7.70;83.20;;;;;;5067528;28;20032;-62
2021/04/29 10:45:27;;;;;;;21.67;13.13;;;7.60;83.00;;;;;;5053876;28;20799;-61
2021/04/29 10:48:05;;;;;;;23.95;14.85;;;7.70;83.60;;;;;;5032436;28;20098;-60
2021/04/29 10:50:42;;;;;;;21.30;13.95;;;7.70;83.30;;;;;;5050913;28;20050;-61
2021/04/29 10:53:07;;;;;;;23.83;13.30;;;7.60;83.90;;;;;;5052812;28;20059;-62
2021/04/29 10:55:39;;;;;;;18.58;13.00;;;7.60;83.50;;;;;;5070809;28;20111;-60
2021/04/29 10:58:06;;;;;;;20.50;13.63;;;7.70;83.30;;;;;;5072431;28;20077;-61
2021/04/29 11:00:33;;;;;;;17.88;12.73;;;7.70;83.40;;;;;;5061387;28;20032;-64
2021/04/29 11:03:03;;;;;;;18.75;12.95;;;7.70;82.80;;;;;;5049763;28;20053;-73
2021/04/29 11:05:30;;;;;;;105.20;49.33;;;7.70;82.70;;;;;;5033510;28;20420;-66
2021/04/29 11:08:06;;;;;;;23.15;14.35;;;7.70;82.70;;;;;;5049873;28;20049;-60
2021/04/29 11:10:36;;;;;;;18.05;12.45;;;7.80;82.50;;;;;;5057940;28;20351;-60
2021/04/29 11:13:02;;;;;;;18.65;12.18;;;7.70;82.80;;;;;;5058635;28;20032;-61
2021/04/29 11:15:32;;;;;;;18.83;13.00;;;7.70;83.20;;;;;;5060580;28;20013;-62
2021/04/29 11:18:16;;;;;;;21.30;12.63;;;7.70;83.80;;;;;;5057757;28;20023;-60
2021/04/29 11:20:45;;;;;;;21.88;13.73;;;7.70;83.70;;;;;;5046531;28;20017;-61
2021/04/29 11:23:11;;;;;;;23.25;13.93;;;7.70;83.90;;;;;;5045628;28;20033;-60
2021/04/29 11:25:39;;;;;;;23.10;13.65;;;7.80;84.10;;;;;;5050445;28;20035;-60
2021/04/29 11:28:05;;;;;;;20.10;12.50;;;7.80;84.10;;;;;;5051446;28;20029;-59
2021/04/29 11:30:31;;;;;;;17.33;12.18;;;7.70;84.20;;;;;;5050247;28;20052;-61
2021/04/29 11:32:58;;;;;;;18.52;12.05;;;7.80;83.90;;;;;;5050640;28;20048;-64
2021/04/29 11:35:28;;;;;;;20.45;14.15;;;7.80;84.10;;;;;;5050807;28;20036;-63
2021/04/29 11:37:54;;;;;;;17.52;12.60;;;7.90;84.30;;;;;;5047922;28;20033;-64
2021/04/29 11:40:20;;;;;;;18.17;12.93;;;8.00;83.50;;;;;;5048900;28;20025;-64
2021/04/29 11:42:52;;;;;;;20.35;13.45;;;7.90;83.90;;;;;;5046353;28;20024;-65
2021/04/29 11:45:19;;;;;;;20.02;13.73;;;8.00;83.70;;;;;;5049776;28;20436;-64
2021/04/29 11:48:04;;;;;;;18.80;11.95;;;8.00;84.00;;;;;;5051364;28;20021;-64
2021/04/29 11:50:54;;;;;;;19.05;12.73;;;8.10;84.10;;;;;;5046411;28;20025;-63
2021/04/29 11:53:30;;;;;;;19.52;12.80;;;8.20;83.50;;;;;;5047758;28;20147;-66
2021/04/29 11:56:00;;;;;;;21.63;11.55;;;8.20;83.90;;;;;;5047732;28;20422;-64
2021/04/29 11:58:26;;;;;;;16.77;11.48;;;8.20;82.60;;;;;;5049901;28;20021;-64
2021/04/29 12:00:53;;;;;;;20.30;11.52;;;8.10;82.20;;;;;;5050375;28;20025;-64
2021/04/29 12:03:20;;;;;;;17.60;12.43;;;8.20;82.10;;;;;;5053940;28;20115;-65
2021/04/29 12:05:50;;;;;;;19.30;12.50;;;8.20;81.90;;;;;;5043150;28;20114;-65
2021/04/29 12:08:16;;;;;;;16.67;11.77;;;8.30;81.90;;;;;;5060517;28;20037;-63
2021/04/29 12:10:50;;;;;;;19.40;11.18;;;8.30;81.60;;;;;;5055831;28;20032;-62
2021/04/29 12:13:17;;;;;;;21.48;11.52;;;8.30;80.80;;;;;;5049334;28;20016;-63
2021/04/29 12:15:43;;;;;;;18.67;11.23;;;8.30;81.30;;;;;;5055234;28;20293;-63
2021/04/29 12:18:12;;;;;;;14.68;10.43;;;8.30;81.10;;;;;;5047672;28;20947;-64
2021/04/29 12:20:38;;;;;;;18.88;10.77;;;8.30;80.30;;;;;;5033004;28;20037;-63
2021/04/29 12:23:03;;;;;;;20.48;12.10;;;8.30;80.70;;;;;;5050166;28;20033;-63
2021/04/29 12:25:29;;;;;;;21.60;11.10;;;8.30;80.80;;;;;;5051354;28;20029;-64
2021/04/29 12:27:55;;;;;;;18.10;11.30;;;8.30;80.50;;;;;;5030181;28;20033;-63
2021/04/29 12:30:25;;;;;;;20.92;10.52;;;8.40;80.60;;;;;;5033580;28;20122;-64
2021/04/29 12:32:51;;;;;;;17.85;11.07;;;8.40;80.70;;;;;;5050662;28;20052;-66
2021/04/29 12:35:34;;;;;;;23.23;11.55;;;8.40;80.30;;;;;;5060051;28;20064;-62